createdAt,value
2023-05-23T00:01:51.028Z,14.49
2023-05-23T00:04:19.102Z,14.47
2023-05-23T00:06:47.079Z,14.44
2023-05-23T00:09:14.974Z,14.42
2023-05-23T00:11:45.705Z,14.40
2023-05-23T00:14:14.352Z,14.38
2023-05-23T00:16:44.312Z,14.35
2023-05-23T00:19:15.239Z,14.34
2023-05-23T00:21:44.009Z,14.32
2023-05-23T00:24:11.426Z,14.30
2023-05-23T00:26:39.020Z,14.30
2023-05-23T00:29:06.570Z,14.29
2023-05-23T00:31:34.115Z,14.29
2023-05-23T00:34:01.718Z,14.27
2023-05-23T00:36:29.212Z,14.26
2023-05-23T00:38:56.661Z,14.25
2023-05-23T00:41:26.101Z,14.22
2023-05-23T00:43:53.589Z,14.20
2023-05-23T00:46:23.345Z,14.20
2023-05-23T00:48:51.015Z,14.18
2023-05-23T00:51:18.599Z,14.18
2023-05-23T00:53:46.223Z,14.19
2023-05-23T00:56:13.922Z,14.19
2023-05-23T00:58:41.370Z,14.18
2023-05-23T01:01:08.820Z,14.20
2023-05-23T01:03:36.444Z,14.20
2023-05-23T01:06:07.475Z,14.21
2023-05-23T01:08:34.886Z,14.22
2023-05-23T01:11:04.697Z,14.23
2023-05-23T01:13:39.536Z,14.23
2023-05-23T01:16:15.313Z,14.21
2023-05-23T01:18:54.920Z,14.19
2023-05-23T01:21:22.498Z,14.16
2023-05-23T01:24:22.266Z,14.10
2023-05-23T01:26:56.279Z,14.04
2023-05-23T01:29:28.933Z,13.99
2023-05-23T01:31:58.450Z,13.95
2023-05-23T01:34:26.017Z,13.92
2023-05-23T01:36:56.786Z,13.89
2023-05-23T01:39:24.197Z,13.84
2023-05-23T01:41:52.147Z,13.80
2023-05-23T01:44:21.364Z,13.77
2023-05-23T01:46:49.059Z,13.75
2023-05-23T01:49:17.551Z,13.72
2023-05-23T01:51:45.182Z,13.68
2023-05-23T01:54:13.574Z,13.66
2023-05-23T01:56:41.082Z,13.63
2023-05-23T01:59:08.524Z,13.60
2023-05-23T02:01:36.094Z,13.57
2023-05-23T02:04:04.069Z,13.54
2023-05-23T02:06:32.024Z,13.51
2023-05-23T02:08:59.466Z,13.51
2023-05-23T02:11:27.171Z,13.50
2023-05-23T02:13:54.762Z,13.52
2023-05-23T02:16:23.432Z,13.54
2023-05-23T02:18:53.156Z,13.55
2023-05-23T02:21:20.741Z,13.55
2023-05-23T02:23:48.280Z,13.56
2023-05-23T02:26:18.436Z,13.57
2023-05-23T02:28:45.959Z,13.58
2023-05-23T02:31:17.479Z,13.58
2023-05-23T02:33:44.965Z,13.58
2023-05-23T02:36:12.385Z,13.59
2023-05-23T02:38:39.978Z,13.60
2023-05-23T02:41:07.588Z,13.60
2023-05-23T02:43:35.242Z,13.61
2023-05-23T02:46:03.156Z,13.63
2023-05-23T02:48:30.789Z,13.63
2023-05-23T02:50:58.394Z,13.63
2023-05-23T02:53:26.176Z,13.63
2023-05-23T02:55:53.828Z,13.64
2023-05-23T02:58:24.391Z,13.65
2023-05-23T03:00:52.129Z,13.69
2023-05-23T03:03:19.751Z,13.71
2023-05-23T03:05:47.206Z,13.72
2023-05-23T03:08:14.640Z,13.74
2023-05-23T03:10:42.088Z,13.77
2023-05-23T03:13:11.386Z,13.79
2023-05-23T03:15:38.956Z,13.78
2023-05-23T03:18:06.552Z,13.80
2023-05-23T03:20:34.233Z,13.83
2023-05-23T03:23:01.607Z,13.88
2023-05-23T03:25:29.116Z,13.93
2023-05-23T03:27:56.553Z,13.98
2023-05-23T03:30:24.021Z,14.02
2023-05-23T03:32:51.618Z,14.08
2023-05-23T03:35:19.053Z,14.13
2023-05-23T03:37:46.654Z,14.17
2023-05-23T03:40:14.102Z,14.23
2023-05-23T03:42:41.577Z,14.28
2023-05-23T03:45:09.843Z,14.33
2023-05-23T03:47:37.568Z,14.38
2023-05-23T03:50:06.257Z,14.45
2023-05-23T03:52:34.029Z,14.55
2023-05-23T03:55:01.625Z,14.64
2023-05-23T03:57:29.396Z,14.72
2023-05-23T03:59:57.246Z,14.81
2023-05-23T04:02:24.885Z,14.88
2023-05-23T04:04:54.241Z,14.95
2023-05-23T04:07:21.892Z,15.04
2023-05-23T04:09:49.253Z,15.12
2023-05-23T04:12:17.135Z,15.20
2023-05-23T04:14:44.784Z,15.26
2023-05-23T04:17:12.390Z,15.35
2023-05-23T04:19:39.949Z,15.42
2023-05-23T04:22:07.650Z,15.48
2023-05-23T04:24:35.224Z,15.57
2023-05-23T04:27:02.671Z,15.66
2023-05-23T04:29:31.879Z,15.76
2023-05-23T04:32:01.064Z,15.87
2023-05-23T04:34:29.203Z,15.95
2023-05-23T04:36:57.785Z,16.04
2023-05-23T04:39:26.318Z,16.12
2023-05-23T04:42:13.853Z,16.21
2023-05-23T04:45:03.838Z,16.30
2023-05-23T04:47:57.359Z,16.40
2023-05-23T04:50:38.453Z,16.49
2023-05-23T04:53:06.769Z,16.56
2023-05-23T04:55:34.743Z,16.63
2023-05-23T04:58:03.573Z,16.71
2023-05-23T05:00:31.051Z,16.79
2023-05-23T05:02:58.694Z,16.90
2023-05-23T05:05:29.256Z,17.01
2023-05-23T05:07:57.178Z,17.14
2023-05-23T05:10:27.859Z,17.29
2023-05-23T05:12:55.395Z,17.46
2023-05-23T05:15:23.948Z,17.66
2023-05-23T05:17:55.272Z,17.85
2023-05-23T05:20:23.302Z,18.03
2023-05-23T05:22:56.681Z,18.22
2023-05-23T05:25:24.624Z,18.38
2023-05-23T05:27:52.843Z,18.53
2023-05-23T05:30:21.660Z,18.64
2023-05-23T05:32:58.368Z,18.76
2023-05-23T05:35:26.069Z,18.83
2023-05-23T05:37:53.541Z,18.84
2023-05-23T05:40:21.078Z,18.95
2023-05-23T05:42:48.595Z,19.10
2023-05-23T05:45:16.189Z,19.19
2023-05-23T05:47:45.694Z,19.24
2023-05-23T05:50:13.169Z,19.25
2023-05-23T05:52:42.495Z,19.19
2023-05-23T05:55:13.940Z,19.13
2023-05-23T05:57:46.074Z,19.08
2023-05-23T06:00:19.296Z,19.03
2023-05-23T06:02:47.822Z,19.00
2023-05-23T06:05:18.947Z,19.00
2023-05-23T06:07:48.611Z,19.04
2023-05-23T06:10:16.253Z,19.05
2023-05-23T06:12:43.912Z,19.01
2023-05-23T06:15:11.682Z,18.99
2023-05-23T06:17:40.237Z,19.02
2023-05-23T06:20:08.435Z,19.09
2023-05-23T06:22:37.144Z,19.15
2023-05-23T06:25:06.322Z,19.21
2023-05-23T06:27:33.780Z,19.28
2023-05-23T06:30:01.314Z,19.31
2023-05-23T06:32:29.232Z,19.36
2023-05-23T06:34:56.873Z,19.42
2023-05-23T06:37:24.304Z,19.51
2023-05-23T06:39:51.876Z,19.60
2023-05-23T06:42:19.603Z,19.66
2023-05-23T06:44:56.951Z,19.72
2023-05-23T06:47:25.554Z,19.80
2023-05-23T06:49:53.177Z,19.87
2023-05-23T06:52:20.626Z,19.87
2023-05-23T06:54:48.277Z,19.89
2023-05-23T06:57:16.670Z,19.92
2023-05-23T06:59:47.452Z,19.96
2023-05-23T07:02:18.087Z,20.00
2023-05-23T07:04:46.461Z,20.02
2023-05-23T07:07:18.647Z,20.04
2023-05-23T07:09:46.799Z,20.06
2023-05-23T07:12:17.846Z,20.09
2023-05-23T07:14:45.737Z,20.11
2023-05-23T07:17:14.429Z,20.16
2023-05-23T07:19:42.478Z,20.25
2023-05-23T07:22:10.067Z,20.34
2023-05-23T07:24:38.402Z,20.37
2023-05-23T07:27:06.708Z,20.40
2023-05-23T07:29:34.991Z,20.43
2023-05-23T07:32:02.412Z,20.47
2023-05-23T07:34:30.972Z,20.54
2023-05-23T07:37:00.391Z,20.67
2023-05-23T07:39:31.879Z,20.82
2023-05-23T07:41:59.895Z,20.94
2023-05-23T07:44:28.673Z,21.05
2023-05-23T07:46:56.318Z,21.19
2023-05-23T07:49:24.457Z,21.38
2023-05-23T07:51:51.947Z,21.63
2023-05-23T07:54:19.432Z,21.85
2023-05-23T07:56:48.970Z,21.95
2023-05-23T07:59:16.920Z,21.95
2023-05-23T08:01:45.184Z,21.97
2023-05-23T08:04:18.688Z,22.05
2023-05-23T08:07:04.297Z,22.13
2023-05-23T08:09:53.118Z,22.30
2023-05-23T08:12:24.112Z,22.42
2023-05-23T08:14:56.689Z,22.49
2023-05-23T08:17:28.733Z,22.49
2023-05-23T08:19:56.498Z,22.47
2023-05-23T08:22:23.966Z,22.40
2023-05-23T08:24:51.453Z,22.30
2023-05-23T08:27:19.010Z,22.31
2023-05-23T08:29:49.107Z,22.39
2023-05-23T08:32:16.820Z,22.43
2023-05-23T08:34:44.559Z,22.45
2023-05-23T08:37:12.060Z,22.52
2023-05-23T08:39:39.842Z,22.62
2023-05-23T08:42:26.976Z,22.79
2023-05-23T08:44:55.124Z,22.84
2023-05-23T08:47:23.111Z,22.86
2023-05-23T08:49:55.346Z,22.93
2023-05-23T08:52:23.055Z,23.01
2023-05-23T08:54:51.687Z,23.11
2023-05-23T08:57:19.297Z,23.25
2023-05-23T08:59:51.045Z,23.36
2023-05-23T09:02:18.671Z,23.44
2023-05-23T09:04:46.864Z,23.54
2023-05-23T09:07:22.760Z,23.56
2023-05-23T09:09:54.058Z,23.64
2023-05-23T09:12:23.892Z,23.80
2023-05-23T09:14:51.976Z,23.98
2023-05-23T09:17:20.589Z,24.13
2023-05-23T09:19:49.010Z,24.21
2023-05-23T09:22:49.169Z,24.23
2023-05-23T09:25:17.142Z,24.26
2023-05-23T09:27:48.033Z,24.41
2023-05-23T09:30:16.318Z,24.49
2023-05-23T09:32:44.928Z,24.51
2023-05-23T09:35:14.308Z,24.61
2023-05-23T09:37:50.653Z,24.86
2023-05-23T09:40:18.225Z,25.13
2023-05-23T09:42:51.280Z,25.29
2023-05-23T09:45:18.842Z,25.34
2023-05-23T09:47:51.594Z,25.45
2023-05-23T09:50:19.872Z,25.67
2023-05-23T09:52:48.255Z,25.90
2023-05-23T09:55:19.083Z,26.06
2023-05-23T09:57:46.700Z,26.15
2023-05-23T10:00:14.656Z,26.32
2023-05-23T10:03:00.799Z,26.53
2023-05-23T10:05:30.919Z,26.64
2023-05-23T10:08:03.313Z,26.75
2023-05-23T10:10:36.138Z,26.84
2023-05-23T10:13:06.725Z,26.83
2023-05-23T10:15:39.490Z,27.15
2023-05-23T10:18:21.670Z,27.38
2023-05-23T10:20:49.614Z,27.62
2023-05-23T10:23:17.577Z,27.94
2023-05-23T10:25:45.002Z,28.41
2023-05-23T10:28:12.521Z,28.87
2023-05-23T10:30:40.167Z,29.09
2023-05-23T10:33:08.902Z,29.23
2023-05-23T10:36:00.501Z,29.59
2023-05-23T10:38:34.118Z,29.95
2023-05-23T10:41:06.910Z,29.92
2023-05-23T10:43:40.507Z,30.05
2023-05-23T10:46:14.911Z,30.26
2023-05-23T10:48:43.726Z,30.65
2023-05-23T10:51:12.794Z,30.93
2023-05-23T10:53:44.447Z,31.26
2023-05-23T10:56:22.134Z,31.57
2023-05-23T10:58:55.000Z,31.81
2023-05-23T11:01:26.006Z,31.91
2023-05-23T11:03:55.301Z,31.94
2023-05-23T11:06:29.808Z,31.28
2023-05-23T11:09:07.356Z,30.21
2023-05-23T11:12:05.939Z,30.47
2023-05-23T11:14:33.576Z,30.98
2023-05-23T11:17:01.666Z,31.53
2023-05-23T11:19:30.070Z,32.10
2023-05-23T11:22:02.340Z,32.08
2023-05-23T11:24:48.296Z,31.66
2023-05-23T11:27:15.928Z,30.98
2023-05-23T11:29:43.513Z,30.35
2023-05-23T11:32:17.158Z,29.55
2023-05-23T11:34:45.497Z,28.85
2023-05-23T11:37:13.123Z,28.42
2023-05-23T11:39:40.979Z,28.16
2023-05-23T11:42:08.451Z,28.20
2023-05-23T11:44:36.125Z,28.49
2023-05-23T11:47:04.782Z,28.82
2023-05-23T11:49:34.554Z,29.00
2023-05-23T11:52:02.450Z,29.12
2023-05-23T11:54:30.283Z,29.16
2023-05-23T11:56:57.871Z,29.03
2023-05-23T11:59:26.473Z,28.91
2023-05-23T12:01:54.266Z,29.03
2023-05-23T12:04:22.093Z,29.27
2023-05-23T12:06:50.732Z,29.41
2023-05-23T12:09:18.294Z,29.44
2023-05-23T12:11:48.768Z,29.61
2023-05-23T12:14:17.495Z,29.77
2023-05-23T12:16:48.523Z,30.11
2023-05-23T12:19:18.299Z,30.39
2023-05-23T12:21:49.604Z,30.19
2023-05-23T12:24:21.707Z,29.60
2023-05-23T12:26:53.776Z,29.30
2023-05-23T12:29:22.628Z,29.30
2023-05-23T12:31:51.733Z,29.35
2023-05-23T12:34:20.682Z,29.48
2023-05-23T12:36:51.915Z,29.73
2023-05-23T12:39:29.035Z,30.02
2023-05-23T12:42:07.051Z,30.26
2023-05-23T12:44:41.681Z,30.55
2023-05-23T12:47:10.636Z,30.71
2023-05-23T12:49:38.527Z,30.63
2023-05-23T12:52:06.379Z,30.53
2023-05-23T12:54:33.888Z,30.60
2023-05-23T12:57:01.412Z,30.83
2023-05-23T12:59:29.110Z,31.02
2023-05-23T13:02:01.180Z,31.17
2023-05-23T13:04:34.194Z,31.40
2023-05-23T13:07:03.228Z,31.53
2023-05-23T13:09:31.193Z,31.61
2023-05-23T13:11:59.046Z,31.46
2023-05-23T13:14:26.880Z,31.24
2023-05-23T13:16:55.466Z,31.18
2023-05-23T13:19:23.054Z,31.28
2023-05-23T13:21:53.736Z,31.63
2023-05-23T13:24:21.323Z,31.98
2023-05-23T13:26:48.836Z,32.23
2023-05-23T13:29:16.358Z,32.54
2023-05-23T13:31:43.986Z,32.72
2023-05-23T13:34:11.758Z,32.39
2023-05-23T13:36:39.345Z,31.89
2023-05-23T13:39:07.529Z,31.96
2023-05-23T13:41:34.988Z,32.39
2023-05-23T13:44:02.472Z,32.75
2023-05-23T13:46:30.011Z,32.82
2023-05-23T13:48:58.553Z,32.48
2023-05-23T13:51:26.031Z,32.23
2023-05-23T13:53:53.523Z,32.27
2023-05-23T13:56:21.529Z,32.08
2023-05-23T13:58:48.985Z,31.81
2023-05-23T14:01:17.604Z,31.86
2023-05-23T14:03:45.008Z,32.22
2023-05-23T14:06:12.406Z,32.36
2023-05-23T14:08:39.858Z,32.08
2023-05-23T14:11:08.150Z,31.64
2023-05-23T14:13:35.674Z,31.47
2023-05-23T14:16:03.190Z,31.56
2023-05-23T14:18:30.645Z,31.59
2023-05-23T14:20:58.187Z,31.79
2023-05-23T14:23:25.599Z,32.08
2023-05-23T14:25:53.012Z,32.53
2023-05-23T14:28:20.609Z,32.93
2023-05-23T14:30:48.117Z,33.27
2023-05-23T14:33:16.113Z,33.40
2023-05-23T14:35:46.729Z,33.27
2023-05-23T14:38:14.186Z,33.26
2023-05-23T14:40:43.873Z,33.32
2023-05-23T14:43:12.297Z,33.24
2023-05-23T14:45:40.019Z,33.18
2023-05-23T14:48:07.799Z,32.98
2023-05-23T14:50:36.185Z,32.62
2023-05-23T14:53:03.798Z,32.17
2023-05-23T14:55:31.240Z,31.85
2023-05-23T14:57:58.686Z,31.61
2023-05-23T15:00:26.159Z,31.28
2023-05-23T15:02:53.754Z,30.89
2023-05-23T15:05:21.548Z,30.40
2023-05-23T15:07:48.959Z,29.90
2023-05-23T15:10:16.420Z,29.35
2023-05-23T15:12:44.125Z,29.00
2023-05-23T15:15:11.995Z,28.76
2023-05-23T15:17:39.683Z,28.33
2023-05-23T15:20:08.481Z,27.98
2023-05-23T15:22:39.711Z,27.89
2023-05-23T15:25:08.343Z,27.88
2023-05-23T15:27:36.251Z,27.88
2023-05-23T15:30:04.336Z,28.10
2023-05-23T15:32:31.786Z,28.45
2023-05-23T15:34:59.252Z,28.73
2023-05-23T15:37:26.743Z,28.95
2023-05-23T15:39:54.143Z,29.18
2023-05-23T15:42:21.640Z,29.42
2023-05-23T15:44:49.120Z,29.60
2023-05-23T15:47:16.696Z,29.77
2023-05-23T15:49:44.111Z,29.87
2023-05-23T15:52:11.559Z,29.93
2023-05-23T15:54:39.098Z,29.99
2023-05-23T15:57:06.504Z,30.02
2023-05-23T15:59:34.262Z,30.05
2023-05-23T16:02:05.472Z,30.02
2023-05-23T16:04:33.133Z,29.94
2023-05-23T16:07:00.611Z,29.90
2023-05-23T16:09:28.047Z,29.76
2023-05-23T16:11:57.111Z,29.52
2023-05-23T16:14:25.028Z,29.30
2023-05-23T16:16:52.593Z,29.14
2023-05-23T16:19:20.160Z,29.06
2023-05-23T16:21:47.744Z,29.01
2023-05-23T16:24:17.135Z,28.75
2023-05-23T16:26:44.690Z,28.31
2023-05-23T16:29:12.533Z,27.84
2023-05-23T16:31:40.042Z,27.54
2023-05-23T16:34:08.569Z,27.41
2023-05-23T16:36:37.281Z,27.35
2023-05-23T16:39:04.733Z,27.45
2023-05-23T16:41:32.203Z,27.55
2023-05-23T16:43:59.707Z,27.62
2023-05-23T16:46:27.324Z,27.81
2023-05-23T16:48:55.980Z,27.81
2023-05-23T16:51:23.445Z,27.66
2023-05-23T16:53:50.964Z,27.49
2023-05-23T16:56:18.999Z,27.28
2023-05-23T16:58:46.832Z,27.00
2023-05-23T17:01:16.624Z,26.75
2023-05-23T17:03:44.225Z,26.51
2023-05-23T17:06:11.885Z,26.32
2023-05-23T17:08:39.332Z,26.20
2023-05-23T17:11:06.849Z,26.11
2023-05-23T17:13:34.869Z,25.96
2023-05-23T17:16:02.537Z,25.82
2023-05-23T17:18:30.277Z,25.68
2023-05-23T17:20:58.210Z,25.57
2023-05-23T17:23:26.026Z,25.46
2023-05-23T17:25:54.335Z,25.32
2023-05-23T17:28:22.677Z,25.14
2023-05-23T17:30:51.912Z,24.94
2023-05-23T17:33:19.724Z,24.69
2023-05-23T17:35:47.170Z,24.41
2023-05-23T17:38:14.722Z,24.21
2023-05-23T17:40:42.500Z,24.05
2023-05-23T17:43:10.266Z,23.88
2023-05-23T17:45:37.770Z,23.72
2023-05-23T17:48:05.348Z,23.53
2023-05-23T17:50:32.785Z,23.30
2023-05-23T17:53:04.327Z,23.13
2023-05-23T17:55:32.056Z,22.96
2023-05-23T17:57:59.496Z,22.82
2023-05-23T18:00:27.001Z,22.64
2023-05-23T18:02:54.528Z,22.49
2023-05-23T18:05:23.807Z,22.33
2023-05-23T18:07:51.284Z,22.17
2023-05-23T18:10:18.915Z,22.02
2023-05-23T18:12:46.604Z,21.90
2023-05-23T18:15:14.102Z,21.81
2023-05-23T18:17:41.832Z,21.69
2023-05-23T18:20:09.871Z,21.55
2023-05-23T18:22:37.718Z,21.43
2023-05-23T18:25:06.900Z,21.34
2023-05-23T18:27:34.499Z,21.27
2023-05-23T18:30:02.047Z,21.18
2023-05-23T18:32:30.379Z,21.10
2023-05-23T18:34:57.883Z,21.03
2023-05-23T18:37:25.499Z,20.95
2023-05-23T18:39:53.261Z,20.87
2023-05-23T18:42:20.738Z,20.79
2023-05-23T18:44:51.985Z,20.72
2023-05-23T18:47:19.507Z,20.64
2023-05-23T18:49:47.128Z,20.60
2023-05-23T18:52:14.655Z,20.55
2023-05-23T18:54:42.599Z,20.50
2023-05-23T18:57:10.505Z,20.45
2023-05-23T18:59:41.340Z,20.38
2023-05-23T19:02:08.900Z,20.31
2023-05-23T19:04:36.806Z,20.18
2023-05-23T19:07:04.509Z,19.97
2023-05-23T19:09:32.290Z,19.85
2023-05-23T19:12:06.238Z,19.77
2023-05-23T19:14:33.705Z,19.71
2023-05-23T19:17:01.192Z,19.66
2023-05-23T19:19:30.935Z,19.60
2023-05-23T19:21:59.298Z,19.53
2023-05-23T19:24:30.917Z,19.49
2023-05-23T19:26:58.338Z,19.42
2023-05-23T19:29:27.198Z,19.40
2023-05-23T19:31:55.428Z,19.36
2023-05-23T19:34:22.827Z,19.30
2023-05-23T19:36:50.526Z,19.24
2023-05-23T19:39:17.972Z,19.17
2023-05-23T19:41:45.534Z,19.10
2023-05-23T19:44:14.035Z,19.05
2023-05-23T19:46:42.337Z,19.01
2023-05-23T19:49:09.934Z,18.99
2023-05-23T19:51:37.932Z,18.97
2023-05-23T19:54:05.785Z,18.94
2023-05-23T19:56:36.019Z,18.89
2023-05-23T19:59:03.409Z,18.83
2023-05-23T20:01:32.798Z,18.79
2023-05-23T20:04:00.599Z,18.76
2023-05-23T20:06:28.217Z,18.75
2023-05-23T20:08:55.724Z,18.75
2023-05-23T20:11:29.943Z,18.76
2023-05-23T20:13:57.755Z,18.76
2023-05-23T20:16:25.346Z,18.77
2023-05-23T20:18:52.890Z,18.75
2023-05-23T20:21:20.488Z,18.74
2023-05-23T20:23:49.757Z,18.75
2023-05-23T20:26:22.852Z,18.75
2023-05-23T20:28:50.571Z,18.75
2023-05-23T20:31:18.976Z,18.76
2023-05-23T20:33:46.533Z,18.75
2023-05-23T20:36:19.754Z,18.71
2023-05-23T20:38:48.076Z,18.65
2023-05-23T20:41:15.653Z,18.58
2023-05-23T20:43:44.788Z,18.51
2023-05-23T20:46:13.837Z,18.45
2023-05-23T20:48:41.867Z,18.38
2023-05-23T20:51:09.840Z,18.33
2023-05-23T20:53:40.622Z,18.25
2023-05-23T20:56:10.485Z,18.19
2023-05-23T20:58:38.291Z,18.13
2023-05-23T21:01:05.774Z,18.08
2023-05-23T21:03:33.466Z,18.03
2023-05-23T21:06:04.516Z,17.98
2023-05-23T21:08:34.554Z,17.95
2023-05-23T21:11:02.499Z,17.93
2023-05-23T21:13:29.950Z,17.92
2023-05-23T21:15:57.531Z,17.92
2023-05-23T21:18:24.945Z,17.92
2023-05-23T21:20:52.563Z,17.90
2023-05-23T21:23:19.990Z,17.87
2023-05-23T21:25:47.516Z,17.86
2023-05-23T21:28:14.961Z,17.87
2023-05-23T21:30:43.110Z,17.88
2023-05-23T21:33:11.387Z,17.88
2023-05-23T21:35:38.968Z,17.88
2023-05-23T21:38:06.420Z,17.87
2023-05-23T21:40:33.861Z,17.89
2023-05-23T21:43:02.134Z,17.89
2023-05-23T21:45:29.640Z,17.85
2023-05-23T21:47:57.237Z,17.78
2023-05-23T21:50:24.703Z,17.72
2023-05-23T21:52:52.134Z,17.68
2023-05-23T21:55:19.637Z,17.65
2023-05-23T21:57:49.147Z,17.60
2023-05-23T22:00:19.110Z,17.54
2023-05-23T22:02:47.436Z,17.46
2023-05-23T22:05:15.463Z,17.41
2023-05-23T22:07:42.964Z,17.39
2023-05-23T22:10:11.173Z,17.32
2023-05-23T22:12:38.991Z,17.24
2023-05-23T22:15:08.443Z,17.20
2023-05-23T22:17:36.048Z,17.15
2023-05-23T22:20:05.478Z,17.11
2023-05-23T22:22:33.039Z,17.06
2023-05-23T22:25:00.442Z,17.01
2023-05-23T22:27:27.854Z,16.97
2023-05-23T22:29:55.279Z,16.93
2023-05-23T22:32:22.782Z,16.83
2023-05-23T22:34:50.550Z,16.74
2023-05-23T22:37:18.077Z,16.69
2023-05-23T22:39:45.642Z,16.64
2023-05-23T22:42:13.149Z,16.62
2023-05-23T22:45:06.369Z,16.58
2023-05-23T22:47:34.564Z,16.55
2023-05-23T22:50:02.389Z,16.52
2023-05-23T22:52:31.458Z,16.50
2023-05-23T22:54:58.918Z,16.47
2023-05-23T22:57:26.469Z,16.45
2023-05-23T22:59:53.937Z,16.44
2023-05-23T23:02:21.450Z,16.45
2023-05-23T23:04:48.982Z,16.45
2023-05-23T23:07:17.048Z,16.47
2023-05-23T23:09:44.490Z,16.46
2023-05-23T23:12:11.897Z,16.45
2023-05-23T23:14:39.349Z,16.44
2023-05-23T23:17:06.853Z,16.44
2023-05-23T23:19:35.399Z,16.45
2023-05-23T23:22:02.827Z,16.44
2023-05-23T23:24:30.986Z,16.43
2023-05-23T23:26:58.448Z,16.40
2023-05-23T23:29:26.004Z,16.38
2023-05-23T23:31:55.871Z,16.38
2023-05-23T23:34:23.325Z,16.40
2023-05-23T23:36:50.782Z,16.40
2023-05-23T23:39:19.028Z,16.40
2023-05-23T23:41:46.577Z,16.41
2023-05-23T23:44:14.767Z,16.42
2023-05-23T23:46:42.264Z,16.41
2023-05-23T23:49:09.775Z,16.40
2023-05-23T23:51:37.161Z,16.39
2023-05-23T23:54:04.689Z,16.40
2023-05-23T23:56:32.263Z,16.40
2023-05-23T23:58:59.678Z,16.40
